Portada
METAR-TAF:

METAR-TAF

Aeropuertos :

Yanbu, Arabia Saudita

latitud: 24-09N, longitud: 038-04E, altitud: 8 m

Observación

El informe se hizo hace 30 minutos, a las 12:00 UTC
Viento 13 kt del oeste-suroeste
Temperatura 29°C
Humedad 33%
Presión 1009 hPa
Visibilidad 10 km o más
Nubes dispersas a una altura de 4000 ft

METAR: OEYN 271200Z 25013KT 9999 SCT040 29/11 Q1009 NOSIG

Hora: 15:30 (12:30 UTC)

Pronóstico

El informe se hizo hace 1 hora y 30 minutos, a las 11:00 UTC
Pronóstico válido del 27 a las 12 UTC al 28 a las 18 UTC
Viento 14 kt del oeste
Visibilidad 10 km o más
Escasas nubes a una altura de 4000 ft
Evolucionando progresivamente
del 27 a las 18 UTC al 27 a las 20 UTC
Viento 3 kt con dirección variable

TAF: OEYN 271100Z 2712/2818 28014KT 9999 FEW040 BECMG 2718/2720 VRB03KT

Observaciones y pronósticos meteorológicos de más de 4000 aeropuertos (mensajes METAR y TAF).

Los puntos amarillos y rojos representan las estaciones disponibles.

Ponga el ratón en el punto deseado para ver el nombre de la estación.

Haga clic para ver las observaciones y los pronósticos meteorológicos.

Para cambiar el mapa : haga clic en los botones verdes con una cruz de color negro para hacer un zoom, en el botón verde con un guión para alejar o en las flechas verdes para mapas adyacentes.


METAR-TAF: